createdAt,value
2023-04-20T00:01:42.401Z,6.22
2023-04-20T00:03:59.515Z,5.80
2023-04-20T00:06:17.180Z,8.43
2023-04-20T00:08:34.116Z,7.50
2023-04-20T00:10:51.419Z,4.10
2023-04-20T00:13:09.479Z,6.70
2023-04-20T00:15:26.799Z,6.07
2023-04-20T00:17:43.949Z,5.88
2023-04-20T00:20:01.569Z,5.85
2023-04-20T00:22:18.566Z,4.45
2023-04-20T00:24:36.790Z,5.32
2023-04-20T00:26:53.907Z,5.95
2023-04-20T00:29:11.384Z,5.30
2023-04-20T00:31:29.743Z,9.10
2023-04-20T00:33:46.821Z,7.45
2023-04-20T00:36:03.952Z,4.82
2023-04-20T00:38:21.010Z,5.07
2023-04-20T00:40:38.036Z,5.32
2023-04-20T00:42:55.313Z,5.55
2023-04-20T00:45:13.607Z,5.53
2023-04-20T00:47:30.716Z,5.63
2023-04-20T00:49:47.665Z,5.25
2023-04-20T00:52:04.645Z,5.82
2023-04-20T00:54:21.995Z,8.30
2023-04-20T00:56:39.205Z,5.20
2023-04-20T00:58:56.473Z,6.57
2023-04-20T01:01:13.793Z,5.90
2023-04-20T01:03:31.990Z,4.13
2023-04-20T01:05:49.312Z,6.68
2023-04-20T01:08:06.354Z,5.15
2023-04-20T01:10:24.421Z,5.25
2023-04-20T01:12:41.540Z,4.40
2023-04-20T01:15:00.801Z,8.40
2023-04-20T01:17:18.099Z,5.47
2023-04-20T01:19:35.385Z,6.10
2023-04-20T01:21:52.458Z,5.20
2023-04-20T01:24:09.477Z,5.80
2023-04-20T01:26:26.733Z,4.93
2023-04-20T01:28:44.081Z,5.65
2023-04-20T01:31:01.098Z,6.22
2023-04-20T01:33:18.360Z,5.53
2023-04-20T01:35:35.428Z,4.50
2023-04-20T01:37:52.757Z,6.72
2023-04-20T01:40:10.059Z,6.93
2023-04-20T01:42:27.119Z,5.05
2023-04-20T01:44:44.301Z,4.68
2023-04-20T01:47:01.518Z,7.38
2023-04-20T01:49:19.820Z,4.65
2023-04-20T01:51:37.917Z,6.40
2023-04-20T01:53:54.999Z,5.05
2023-04-20T01:56:12.046Z,6.95
2023-04-20T01:58:30.062Z,7.70
2023-04-20T02:00:47.005Z,7.45
2023-04-20T02:03:05.530Z,5.70
2023-04-20T02:05:22.642Z,8.52
2023-04-20T02:07:39.970Z,7.05
2023-04-20T02:09:57.060Z,11.35
2023-04-20T02:12:14.186Z,19.15
2023-04-20T02:14:31.323Z,13.52
2023-04-20T02:16:48.718Z,8.15
2023-04-20T02:19:07.049Z,5.90
2023-04-20T02:21:24.328Z,7.30
2023-04-20T02:23:41.600Z,6.22
2023-04-20T02:25:59.664Z,6.78
2023-04-20T02:28:16.711Z,6.20
2023-04-20T02:30:33.955Z,4.90
2023-04-20T02:32:51.255Z,5.95
2023-04-20T02:35:08.596Z,5.10
2023-04-20T02:37:25.623Z,8.25
2023-04-20T02:39:42.637Z,7.65
2023-04-20T02:42:00.717Z,8.52
2023-04-20T02:44:18.741Z,7.43
2023-04-20T02:46:36.343Z,5.18
2023-04-20T02:48:53.398Z,6.68
2023-04-20T02:51:10.448Z,6.32
2023-04-20T02:53:27.586Z,6.95
2023-04-20T02:55:44.625Z,9.45
2023-04-20T02:58:01.698Z,5.80
2023-04-20T03:00:18.964Z,7.30
2023-04-20T03:02:36.125Z,6.70
2023-04-20T03:04:53.670Z,6.57
2023-04-20T03:07:10.756Z,6.60
2023-04-20T03:09:27.978Z,6.90
2023-04-20T03:11:45.316Z,5.45
2023-04-20T03:14:02.271Z,6.10
2023-04-20T03:16:20.698Z,5.13
2023-04-20T03:18:37.729Z,8.10
2023-04-20T03:20:55.692Z,7.15
2023-04-20T03:23:13.107Z,8.38
2023-04-20T03:25:30.121Z,7.18
2023-04-20T03:27:47.160Z,6.72
2023-04-20T03:30:04.215Z,6.72
2023-04-20T03:32:21.530Z,7.55
2023-04-20T03:34:38.572Z,6.68
2023-04-20T03:36:55.802Z,5.97
2023-04-20T03:39:12.875Z,5.80
2023-04-20T03:41:29.870Z,6.22
2023-04-20T03:43:47.870Z,7.40
2023-04-20T03:46:05.241Z,6.95
2023-04-20T03:48:22.361Z,8.00
2023-04-20T03:50:39.331Z,7.45
2023-04-20T03:52:56.698Z,6.40
2023-04-20T03:55:13.774Z,6.82
2023-04-20T03:57:30.796Z,6.90
2023-04-20T03:59:48.016Z,6.28
2023-04-20T04:02:04.946Z,8.30
2023-04-20T04:04:22.247Z,8.05
2023-04-20T04:06:39.724Z,11.25
2023-04-20T04:08:57.030Z,8.60
2023-04-20T04:11:14.013Z,10.07
2023-04-20T04:13:34.347Z,6.38
2023-04-20T04:15:51.640Z,7.32
2023-04-20T04:18:09.021Z,7.38
2023-04-20T04:20:26.286Z,7.78
2023-04-20T04:22:43.346Z,8.23
2023-04-20T04:25:00.276Z,8.68
2023-04-20T04:27:17.538Z,6.57
2023-04-20T04:29:34.542Z,6.20
2023-04-20T04:31:51.737Z,6.50
2023-04-20T04:34:08.945Z,7.05
2023-04-20T04:36:26.161Z,5.93
2023-04-20T04:38:43.195Z,7.85
2023-04-20T04:41:00.167Z,8.75
2023-04-20T04:43:17.463Z,8.65
2023-04-20T04:45:34.426Z,6.43
2023-04-20T04:47:51.364Z,7.22
2023-04-20T04:50:08.617Z,7.03
2023-04-20T04:52:25.919Z,8.25
2023-04-20T04:54:42.978Z,6.65
2023-04-20T04:56:59.974Z,8.27
2023-04-20T04:59:18.334Z,7.20
2023-04-20T05:01:35.492Z,7.65
2023-04-20T05:03:52.649Z,8.52
2023-04-20T05:06:09.821Z,8.35
2023-04-20T05:08:27.054Z,7.13
2023-04-20T05:10:44.908Z,7.22
2023-04-20T05:13:01.925Z,6.78
2023-04-20T05:15:19.939Z,8.48
2023-04-20T05:17:36.935Z,7.00
2023-04-20T05:19:55.291Z,6.78
2023-04-20T05:22:12.290Z,6.68
2023-04-20T05:24:29.212Z,6.57
2023-04-20T05:26:46.462Z,10.50
2023-04-20T05:29:04.731Z,9.18
2023-04-20T05:31:22.084Z,8.15
2023-04-20T05:33:39.152Z,7.97
2023-04-20T05:35:56.146Z,11.57
2023-04-20T05:38:14.238Z,7.65
2023-04-20T05:40:31.505Z,7.20
2023-04-20T05:42:48.523Z,8.80
2023-04-20T05:45:05.555Z,8.35
2023-04-20T05:47:22.534Z,7.53
2023-04-20T05:49:39.560Z,8.38
2023-04-20T05:51:56.548Z,8.65
2023-04-20T05:54:13.891Z,9.25
2023-04-20T05:56:31.215Z,8.80
2023-04-20T05:58:48.138Z,9.35
2023-04-20T06:01:05.082Z,10.48
2023-04-20T06:03:22.181Z,10.13
2023-04-20T06:05:40.417Z,11.02
2023-04-20T06:07:57.450Z,11.35
2023-04-20T06:10:15.340Z,11.05
2023-04-20T06:12:32.401Z,10.23
2023-04-20T06:14:49.417Z,19.67
2023-04-20T06:17:06.465Z,22.67
2023-04-20T06:19:23.378Z,11.80
2023-04-20T06:21:40.393Z,10.18
2023-04-20T06:23:57.435Z,10.18
2023-04-20T06:26:14.678Z,9.00
2023-04-20T06:28:31.664Z,9.55
2023-04-20T06:30:48.561Z,10.20
2023-04-20T06:33:05.869Z,10.70
2023-04-20T06:35:23.159Z,8.40
2023-04-20T06:37:40.481Z,11.25
2023-04-20T06:39:57.689Z,9.48
2023-04-20T06:42:14.732Z,10.55
2023-04-20T06:44:31.738Z,9.98
2023-04-20T06:46:48.789Z,8.27
2023-04-20T06:49:06.074Z,13.23
2023-04-20T06:51:22.994Z,9.63
2023-04-20T06:53:40.008Z,9.73
2023-04-20T06:55:57.106Z,8.80
2023-04-20T06:58:14.162Z,8.88
2023-04-20T07:00:31.302Z,10.82
2023-04-20T07:02:48.454Z,9.20
2023-04-20T07:05:05.568Z,8.82
2023-04-20T07:07:22.576Z,8.60
2023-04-20T07:09:39.837Z,10.50
2023-04-20T07:11:57.116Z,9.40
2023-04-20T07:14:15.081Z,11.43
2023-04-20T07:16:32.459Z,10.40
2023-04-20T07:18:51.022Z,11.05
2023-04-20T07:21:08.381Z,8.63
2023-04-20T07:23:26.546Z,11.40
2023-04-20T07:25:43.581Z,10.15
2023-04-20T07:28:00.906Z,10.85
2023-04-20T07:30:17.821Z,44.00
2023-04-20T07:32:36.251Z,31.75
2023-04-20T07:34:53.225Z,32.88
2023-04-20T07:37:10.339Z,20.48
2023-04-20T07:39:27.423Z,21.75
2023-04-20T07:41:44.446Z,13.98
2023-04-20T07:44:01.745Z,10.80
2023-04-20T07:46:19.335Z,10.10
2023-04-20T07:48:36.631Z,11.52
2023-04-20T07:50:53.668Z,11.18
2023-04-20T07:53:10.704Z,11.98
2023-04-20T07:55:27.995Z,10.85
2023-04-20T07:57:44.982Z,11.52
2023-04-20T08:00:02.070Z,13.20
2023-04-20T08:02:20.187Z,10.85
2023-04-20T08:04:37.817Z,15.00
2023-04-20T08:06:55.371Z,14.13
2023-04-20T08:09:13.482Z,13.13
2023-04-20T08:11:30.529Z,13.43
2023-04-20T08:13:47.599Z,12.52
2023-04-20T08:16:04.735Z,10.32
2023-04-20T08:18:21.752Z,14.57
2023-04-20T08:20:39.067Z,13.05
2023-04-20T08:22:56.010Z,25.13
2023-04-20T08:25:14.063Z,22.38
2023-04-20T08:27:31.377Z,63.30
2023-04-20T08:29:48.396Z,32.65
2023-04-20T08:32:05.709Z,24.25
2023-04-20T08:34:22.947Z,15.45
2023-04-20T08:36:41.008Z,14.30
2023-04-20T08:38:58.071Z,13.98
2023-04-20T08:41:15.321Z,18.55
2023-04-20T08:43:32.343Z,17.20
2023-04-20T08:45:49.323Z,15.50
2023-04-20T08:48:07.428Z,17.25
2023-04-20T08:50:24.712Z,13.75
2023-04-20T08:52:41.777Z,12.60
2023-04-20T08:54:59.098Z,14.15
2023-04-20T08:57:16.131Z,14.63
2023-04-20T08:59:33.473Z,11.73
2023-04-20T09:01:50.515Z,13.05
2023-04-20T09:04:07.799Z,15.95
2023-04-20T09:06:24.947Z,12.60
2023-04-20T09:08:42.210Z,13.27
2023-04-20T09:11:00.253Z,11.90
2023-04-20T09:13:17.277Z,13.10
2023-04-20T09:15:34.326Z,12.73
2023-04-20T09:17:51.650Z,13.57
2023-04-20T09:20:08.665Z,11.43
2023-04-20T09:22:25.589Z,12.38
2023-04-20T09:24:42.621Z,11.02
2023-04-20T09:26:59.878Z,12.10
2023-04-20T09:29:16.890Z,11.25
2023-04-20T09:31:34.098Z,12.10
2023-04-20T09:33:51.123Z,11.07
2023-04-20T09:36:09.531Z,11.98
2023-04-20T09:38:26.548Z,12.95
2023-04-20T09:40:43.609Z,13.07
2023-04-20T09:43:00.610Z,24.67
2023-04-20T09:45:17.506Z,14.32
2023-04-20T09:47:35.509Z,13.70
2023-04-20T09:49:52.543Z,13.75
2023-04-20T09:52:09.766Z,12.93
2023-04-20T09:54:26.860Z,12.27
2023-04-20T09:56:44.067Z,13.18
2023-04-20T09:59:01.372Z,13.50
2023-04-20T10:01:18.713Z,13.75
2023-04-20T10:03:35.871Z,13.23
2023-04-20T10:05:53.587Z,11.95
2023-04-20T10:08:11.582Z,12.02
2023-04-20T10:10:28.553Z,12.07
2023-04-20T10:12:45.821Z,13.43
2023-04-20T10:15:03.094Z,14.77
2023-04-20T10:17:20.252Z,10.90
2023-04-20T10:19:37.305Z,13.38
2023-04-20T10:21:54.620Z,12.45
2023-04-20T10:24:11.685Z,10.52
2023-04-20T10:26:28.598Z,9.55
2023-04-20T10:28:45.837Z,12.43
2023-04-20T10:31:03.112Z,11.55
2023-04-20T10:33:20.365Z,12.27
2023-04-20T10:35:38.567Z,13.10
2023-04-20T10:37:55.864Z,11.52
2023-04-20T10:40:12.825Z,12.57
2023-04-20T10:42:29.835Z,12.18
2023-04-20T10:44:47.166Z,11.43
2023-04-20T10:47:04.176Z,10.43
2023-04-20T10:49:22.633Z,9.70
2023-04-20T10:51:39.643Z,10.70
2023-04-20T10:53:57.840Z,8.88
2023-04-20T10:56:14.871Z,8.52
2023-04-20T10:58:31.798Z,9.60
2023-04-20T11:00:48.799Z,10.25
2023-04-20T11:03:06.124Z,10.02
2023-04-20T11:05:24.290Z,12.10
2023-04-20T11:07:41.430Z,13.73
2023-04-20T11:09:59.651Z,9.55
2023-04-20T11:12:16.687Z,10.88
2023-04-20T11:14:33.698Z,9.85
2023-04-20T11:16:51.878Z,10.07
2023-04-20T11:19:09.189Z,11.50
2023-04-20T11:21:26.497Z,11.40
2023-04-20T11:23:43.768Z,11.82
2023-04-20T11:26:00.796Z,12.70
2023-04-20T11:28:18.700Z,12.75
2023-04-20T11:30:35.673Z,11.27
2023-04-20T11:32:53.032Z,11.18
2023-04-20T11:35:10.220Z,15.73
2023-04-20T11:37:27.289Z,10.02
2023-04-20T11:39:45.468Z,9.77
2023-04-20T11:42:02.366Z,11.45
2023-04-20T11:44:19.885Z,12.45
2023-04-20T11:46:36.853Z,9.20
2023-04-20T11:48:54.062Z,10.02
2023-04-20T11:51:11.141Z,11.13
2023-04-20T11:53:28.090Z,12.57
2023-04-20T11:55:44.934Z,10.35
2023-04-20T11:58:01.844Z,10.02
2023-04-20T12:00:19.706Z,9.35
2023-04-20T12:02:37.194Z,8.60
2023-04-20T12:04:54.702Z,11.95
2023-04-20T12:07:11.634Z,12.30
2023-04-20T12:09:28.665Z,10.13
2023-04-20T12:11:45.961Z,10.13
2023-04-20T12:14:03.944Z,8.35
2023-04-20T12:16:21.316Z,10.00
2023-04-20T12:18:38.623Z,11.80
2023-04-20T12:20:55.873Z,7.93
2023-04-20T12:23:12.917Z,12.07
2023-04-20T12:25:30.181Z,8.57
2023-04-20T12:27:48.223Z,7.15
2023-04-20T12:30:06.949Z,9.93
2023-04-20T12:32:23.918Z,8.52
2023-04-20T12:34:41.136Z,8.02
2023-04-20T12:36:59.157Z,10.32
2023-04-20T12:39:16.212Z,7.90
2023-04-20T12:41:33.392Z,8.40
2023-04-20T12:43:50.687Z,9.77
2023-04-20T12:46:07.722Z,7.70
2023-04-20T12:48:24.638Z,7.53
2023-04-20T12:50:41.548Z,11.25
2023-04-20T12:52:58.890Z,9.52
2023-04-20T12:55:15.985Z,7.85
2023-04-20T12:57:33.285Z,5.82
2023-04-20T12:59:50.331Z,10.02
2023-04-20T13:02:07.303Z,9.00
2023-04-20T13:04:24.863Z,8.10
2023-04-20T13:06:42.216Z,7.32
2023-04-20T13:08:59.528Z,6.90
2023-04-20T13:11:16.560Z,8.75
2023-04-20T13:13:33.545Z,6.88
2023-04-20T13:15:50.852Z,9.95
2023-04-20T13:18:09.062Z,8.18
2023-04-20T13:20:26.005Z,9.70
2023-04-20T13:22:54.459Z,9.52
2023-04-20T13:25:14.214Z,6.72
2023-04-20T13:27:31.472Z,6.97
2023-04-20T13:29:48.746Z,7.28
2023-04-20T13:32:05.790Z,6.07
2023-04-20T13:34:23.123Z,6.75
2023-04-20T13:36:40.114Z,5.63
2023-04-20T13:38:58.089Z,7.68
2023-04-20T13:41:15.177Z,8.55
2023-04-20T13:43:32.219Z,7.72
2023-04-20T13:45:49.528Z,6.53
2023-04-20T13:48:06.616Z,6.40
2023-04-20T13:50:23.857Z,4.53
2023-04-20T13:52:41.200Z,4.28
2023-04-20T13:54:58.488Z,4.40
2023-04-20T13:57:15.493Z,6.47
2023-04-20T13:59:32.551Z,4.60
2023-04-20T14:01:49.649Z,5.40
2023-04-20T14:04:08.098Z,5.25
2023-04-20T14:06:25.319Z,6.28
2023-04-20T14:08:42.583Z,5.43
2023-04-20T14:10:59.600Z,5.35
2023-04-20T14:13:16.631Z,5.05
2023-04-20T14:15:33.666Z,5.55
2023-04-20T14:17:52.451Z,5.32
2023-04-20T14:20:10.240Z,6.18
2023-04-20T14:22:27.476Z,5.32
2023-04-20T14:24:44.768Z,4.97
2023-04-20T14:27:01.723Z,5.03
2023-04-20T14:29:19.016Z,7.15
2023-04-20T14:31:36.272Z,6.47
2023-04-20T14:33:53.352Z,8.02
2023-04-20T14:36:10.408Z,6.28
2023-04-20T14:38:27.647Z,4.45
2023-04-20T14:40:45.867Z,6.75
2023-04-20T14:43:02.919Z,6.43
2023-04-20T14:45:20.199Z,5.80
2023-04-20T14:47:37.323Z,7.35
2023-04-20T14:49:54.331Z,6.80
2023-04-20T14:52:11.610Z,7.07
2023-04-20T14:54:28.588Z,5.07
2023-04-20T14:56:46.913Z,6.80
2023-04-20T14:59:04.013Z,6.38
2023-04-20T15:01:21.093Z,5.25
2023-04-20T15:03:38.485Z,5.78
2023-04-20T15:05:56.086Z,5.72
2023-04-20T15:08:14.307Z,5.40
2023-04-20T15:10:31.327Z,5.63
2023-04-20T15:12:49.337Z,6.28
2023-04-20T15:15:06.721Z,6.40
2023-04-20T15:17:23.851Z,8.48
2023-04-20T15:19:40.864Z,11.15
2023-04-20T15:21:58.056Z,6.00
2023-04-20T15:24:15.087Z,6.07
2023-04-20T15:26:32.013Z,10.93
2023-04-20T15:28:49.361Z,9.50
2023-04-20T15:31:06.724Z,7.78
2023-04-20T15:33:27.140Z,6.78
2023-04-20T15:35:45.121Z,6.68
2023-04-20T15:38:02.011Z,8.73
2023-04-20T15:40:19.265Z,6.32
2023-04-20T15:42:37.274Z,7.25
2023-04-20T15:44:54.624Z,10.40
2023-04-20T15:47:11.679Z,7.00
2023-04-20T15:49:28.577Z,22.52
2023-04-20T15:51:45.648Z,11.30
2023-04-20T15:54:02.670Z,12.82
2023-04-20T15:56:19.709Z,10.45
2023-04-20T15:58:36.747Z,7.22
2023-04-20T16:00:53.873Z,7.47
2023-04-20T16:03:11.331Z,7.32
2023-04-20T16:05:28.382Z,9.65
2023-04-20T16:07:46.403Z,7.10
2023-04-20T16:10:03.539Z,18.27
2023-04-20T16:12:21.569Z,13.10
2023-04-20T16:14:38.584Z,10.90
2023-04-20T16:16:56.751Z,8.65
2023-04-20T16:19:13.866Z,10.55
2023-04-20T16:21:30.891Z,8.85
2023-04-20T16:23:47.905Z,9.15
2023-04-20T16:26:05.069Z,9.02
2023-04-20T16:28:21.998Z,6.45
2023-04-20T16:30:39.215Z,7.57
2023-04-20T16:32:56.298Z,8.50
2023-04-20T16:35:13.378Z,35.67
2023-04-20T16:37:30.436Z,51.05
2023-04-20T16:39:47.643Z,16.38
2023-04-20T16:42:04.603Z,10.13
2023-04-20T16:44:21.584Z,7.63
2023-04-20T16:46:38.969Z,8.13
2023-04-20T16:48:56.282Z,12.02
2023-04-20T16:51:13.281Z,14.35
2023-04-20T16:53:30.275Z,9.50
2023-04-20T16:55:47.352Z,8.73
2023-04-20T16:58:04.385Z,9.90
2023-04-20T17:00:21.499Z,11.45
2023-04-20T17:02:38.904Z,9.23
2023-04-20T17:04:56.341Z,9.70
2023-04-20T17:07:13.390Z,7.80
2023-04-20T17:09:30.386Z,10.82
2023-04-20T17:11:47.682Z,8.65
2023-04-20T17:14:04.729Z,8.05
2023-04-20T17:16:21.862Z,9.20
2023-04-20T17:18:41.712Z,9.10
2023-04-20T17:20:59.005Z,9.77
2023-04-20T17:23:16.118Z,13.18
2023-04-20T17:25:33.156Z,8.57
2023-04-20T17:27:50.226Z,9.90
2023-04-20T17:30:07.518Z,9.95
2023-04-20T17:32:24.840Z,11.05
2023-04-20T17:34:43.133Z,9.68
2023-04-20T17:37:00.132Z,11.63
2023-04-20T17:39:17.319Z,9.95
2023-04-20T17:41:34.380Z,13.98
2023-04-20T17:43:51.600Z,10.60
2023-04-20T17:46:08.846Z,9.57
2023-04-20T17:48:26.211Z,13.73
2023-04-20T17:50:43.547Z,11.85
2023-04-20T17:53:00.882Z,17.42
2023-04-20T17:55:17.884Z,20.08
2023-04-20T17:57:35.825Z,15.52
2023-04-20T17:59:52.781Z,12.75
2023-04-20T18:02:11.223Z,10.93
2023-04-20T18:04:28.541Z,9.70
2023-04-20T18:06:45.889Z,10.15
2023-04-20T18:09:03.234Z,8.70
2023-04-20T18:11:20.536Z,12.65
2023-04-20T18:13:37.745Z,11.32
2023-04-20T18:15:55.656Z,16.25
2023-04-20T18:18:12.772Z,14.65
2023-04-20T18:20:32.584Z,12.80
2023-04-20T18:22:49.857Z,12.23
2023-04-20T18:25:06.950Z,9.70
2023-04-20T18:27:24.962Z,14.75
2023-04-20T18:29:41.917Z,10.80
2023-04-20T18:31:59.442Z,13.48
2023-04-20T18:34:16.818Z,13.40
2023-04-20T18:36:34.697Z,10.75
2023-04-20T18:38:51.752Z,13.13
2023-04-20T18:41:09.062Z,12.70
2023-04-20T18:43:26.072Z,14.73
2023-04-20T18:45:43.382Z,13.40
2023-04-20T18:48:00.457Z,13.27
2023-04-20T18:50:17.434Z,13.02
2023-04-20T18:52:34.687Z,13.30
2023-04-20T18:54:51.692Z,11.60
2023-04-20T18:57:08.745Z,12.13
2023-04-20T18:59:25.741Z,14.23
2023-04-20T19:01:44.882Z,11.95
2023-04-20T19:04:02.297Z,10.88
2023-04-20T19:06:20.359Z,11.57
2023-04-20T19:08:37.391Z,13.82
2023-04-20T19:10:54.637Z,12.40
2023-04-20T19:13:11.683Z,12.18
2023-04-20T19:15:28.604Z,11.82
2023-04-20T19:17:45.696Z,13.00
2023-04-20T19:20:02.968Z,15.57
2023-04-20T19:22:19.901Z,13.00
2023-04-20T19:24:36.927Z,22.13
2023-04-20T19:26:54.284Z,19.60
2023-04-20T19:29:11.592Z,19.75
2023-04-20T19:31:29.926Z,17.70
2023-04-20T19:33:47.185Z,18.58
2023-04-20T19:36:04.107Z,15.35
2023-04-20T19:38:21.181Z,14.75
2023-04-20T19:40:39.127Z,14.32
2023-04-20T19:42:56.019Z,14.82
2023-04-20T19:45:13.041Z,16.08
2023-04-20T19:47:30.125Z,15.18
2023-04-20T19:49:48.523Z,14.70
2023-04-20T19:52:05.524Z,15.70
2023-04-20T19:54:22.819Z,17.58
2023-04-20T19:56:39.832Z,16.77
2023-04-20T19:58:57.150Z,16.45
2023-04-20T20:01:14.057Z,18.02
2023-04-20T20:03:31.212Z,20.02
2023-04-20T20:05:49.511Z,17.85
2023-04-20T20:08:06.632Z,17.98
2023-04-20T20:10:24.519Z,17.55
2023-04-20T20:12:41.566Z,19.80
2023-04-20T20:14:59.607Z,17.20
2023-04-20T20:17:16.953Z,17.85
2023-04-20T20:19:34.308Z,19.55
2023-04-20T20:21:52.325Z,18.08
2023-04-20T20:24:09.653Z,20.52
2023-04-20T20:26:26.960Z,19.52
2023-04-20T20:28:45.540Z,19.92
2023-04-20T20:31:02.485Z,19.80
2023-04-20T20:33:19.487Z,20.95
2023-04-20T20:35:36.798Z,22.63
2023-04-20T20:37:53.846Z,19.48
2023-04-20T20:40:10.765Z,22.42
2023-04-20T20:42:27.776Z,22.95
2023-04-20T20:44:45.135Z,20.98
2023-04-20T20:47:02.265Z,23.48
2023-04-20T20:49:19.576Z,20.77
2023-04-20T20:51:37.040Z,20.52
2023-04-20T20:53:54.047Z,20.98
2023-04-20T20:56:11.116Z,21.58
2023-04-20T20:58:28.371Z,24.15
2023-04-20T21:00:45.550Z,22.92
2023-04-20T21:03:02.726Z,20.73
2023-04-20T21:05:19.800Z,22.83
2023-04-20T21:07:38.976Z,21.67
2023-04-20T21:09:56.035Z,22.52
2023-04-20T21:12:13.341Z,23.23
2023-04-20T21:14:30.277Z,23.23
2023-04-20T21:16:47.346Z,24.35
2023-04-20T21:19:04.315Z,21.67
2023-04-20T21:21:21.377Z,22.17
2023-04-20T21:23:38.368Z,24.92
2023-04-20T21:25:55.659Z,22.55
2023-04-20T21:28:12.875Z,21.48
2023-04-20T21:30:30.134Z,24.13
2023-04-20T21:32:47.189Z,23.58
2023-04-20T21:35:04.192Z,27.20
2023-04-20T21:37:21.166Z,22.60
2023-04-20T21:39:38.083Z,28.17
2023-04-20T21:41:56.146Z,25.48
2023-04-20T21:44:13.178Z,25.40
2023-04-20T21:46:31.170Z,25.70
2023-04-20T21:48:48.203Z,24.38
2023-04-20T21:51:05.224Z,22.98
2023-04-20T21:53:22.458Z,23.67
2023-04-20T21:55:39.492Z,22.95
2023-04-20T21:57:56.420Z,23.38
2023-04-20T22:00:13.660Z,25.15
2023-04-20T22:02:30.715Z,25.98
2023-04-20T22:04:48.089Z,24.60
2023-04-20T22:07:05.338Z,26.65
2023-04-20T22:09:22.328Z,25.65
2023-04-20T22:11:40.267Z,21.67
2023-04-20T22:13:58.527Z,26.05
2023-04-20T22:16:15.588Z,24.65
2023-04-20T22:18:32.654Z,25.48
2023-04-20T22:20:49.669Z,25.98
2023-04-20T22:23:06.648Z,26.67
2023-04-20T22:25:23.943Z,27.40
2023-04-20T22:27:41.817Z,25.20
2023-04-20T22:29:58.833Z,24.63
2023-04-20T22:32:15.869Z,24.40
2023-04-20T22:34:33.170Z,23.55
2023-04-20T22:36:51.128Z,23.77
2023-04-20T22:39:08.387Z,24.17
2023-04-20T22:41:25.628Z,25.88
2023-04-20T22:43:42.867Z,29.50
2023-04-20T22:46:02.285Z,23.88
2023-04-20T22:48:19.307Z,22.55
2023-04-20T22:50:37.580Z,22.83
2023-04-20T22:52:54.512Z,21.90
2023-04-20T22:55:11.758Z,28.10
2023-04-20T22:57:29.023Z,24.40
2023-04-20T22:59:46.865Z,25.20
2023-04-20T23:02:05.984Z,24.08
2023-04-20T23:04:25.273Z,26.17
2023-04-20T23:06:42.364Z,23.77
2023-04-20T23:09:00.259Z,26.20
2023-04-20T23:11:17.246Z,25.17
2023-04-20T23:13:34.309Z,24.58
2023-04-20T23:15:51.305Z,24.70
2023-04-20T23:18:09.389Z,25.23
2023-04-20T23:20:26.725Z,27.02
2023-04-20T23:22:43.753Z,26.98
2023-04-20T23:25:00.884Z,26.48
2023-04-20T23:27:17.906Z,23.17
2023-04-20T23:29:34.971Z,24.92
2023-04-20T23:31:52.197Z,26.70
2023-04-20T23:34:09.495Z,26.17
2023-04-20T23:36:26.746Z,25.67
2023-04-20T23:38:43.869Z,25.75
2023-04-20T23:41:01.193Z,26.45
2023-04-20T23:43:18.093Z,25.17
2023-04-20T23:45:35.993Z,24.02
2023-04-20T23:47:53.076Z,23.58
2023-04-20T23:50:10.388Z,26.58
2023-04-20T23:52:28.752Z,24.13
2023-04-20T23:54:46.026Z,25.35
2023-04-20T23:57:03.124Z,23.17
2023-04-20T23:59:20.479Z,28.38
